Time;durP1;ratioP1;P1;durP2;ratioP2;P2;SDS_P1;SDS_P2;PMS_P1;PMS_P2;Temp;Humidity;BMP_temperature;BMP_pressure;BME280_temperature;BME280_humidity;BME280_pressure;Samples;Min_cycle;Max_cycle;Signal;HPM_P1;HPM_P2
2023/04/19 00:01:23;;;;;;;16.83;11.00;;;;;;;;;;5053107;28;20033;-76
2023/04/19 00:03:49;;;;;;;14.85;9.95;;;;;;;;;;5053123;28;20396;-76
2023/04/19 00:06:17;;;;;;;14.70;9.65;;;;;;;;;;5053149;28;20102;-76
2023/04/19 00:08:43;;;;;;;19.27;9.93;;;;;;;;;;5053037;28;20056;-76
2023/04/19 00:11:09;;;;;;;19.33;10.18;;;;;;;;;;5051875;28;20115;-76
2023/04/19 00:13:34;;;;;;;12.20;8.20;;;;;;;;;;5054635;28;20060;-76
2023/04/19 00:16:00;;;;;;;17.55;9.38;;;;;;;;;;5056595;28;20028;-77
2023/04/19 00:18:27;;;;;;;13.32;8.45;;;;;;;;;;5057828;28;20025;-77
2023/04/19 00:20:52;;;;;;;13.32;7.93;;;;;;;;;;5057321;28;20025;-76
2023/04/19 00:23:18;;;;;;;10.77;7.07;;;;;;;;;;5056894;28;20476;-81
2023/04/19 00:25:48;;;;;;;11.13;7.57;;;;;;;;;;5056711;28;20029;-76
2023/04/19 00:28:13;;;;;;;10.52;6.97;;;;;;;;;;5057689;28;20021;-76
2023/04/19 00:30:39;;;;;;;11.25;6.85;;;;;;;;;;5055163;28;20025;-75
2023/04/19 00:33:11;;;;;;;12.50;6.72;;;;;;;;;;5038626;28;20029;-75
2023/04/19 00:35:38;;;;;;;11.55;6.28;;;;;;;;;;5056240;28;20021;-82
2023/04/19 00:38:05;;;;;;;10.88;6.50;;;;;;;;;;5056493;28;20373;-76
2023/04/19 00:40:31;;;;;;;9.32;6.22;;;;;;;;;;5056203;28;20033;-75
2023/04/19 00:42:57;;;;;;;9.35;5.47;;;;;;;;;;5055878;28;20054;-78
2023/04/19 00:45:23;;;;;;;8.45;5.47;;;;;;;;;;5055059;28;20060;-75
2023/04/19 00:47:49;;;;;;;9.65;5.50;;;;;;;;;;5058720;28;20439;-81
2023/04/19 00:50:14;;;;;;;7.80;5.43;;;;;;;;;;5057961;28;20024;-76
2023/04/19 00:52:40;;;;;;;8.77;5.63;;;;;;;;;;5058858;28;20033;-76
2023/04/19 00:55:06;;;;;;;8.88;5.35;;;;;;;;;;5056668;28;20021;-75
2023/04/19 00:57:31;;;;;;;6.63;5.05;;;;;;;;;;5056302;28;20429;-75
2023/04/19 00:59:57;;;;;;;8.95;4.88;;;;;;;;;;5058284;28;20048;-75
2023/04/19 01:02:23;;;;;;;9.75;5.22;;;;;;;;;;5058189;28;20104;-75
2023/04/19 01:04:48;;;;;;;10.27;4.50;;;;;;;;;;5058436;28;20078;-76
2023/04/19 01:07:13;;;;;;;9.15;5.28;;;;;;;;;;5058306;28;20029;-76
2023/04/19 01:09:40;;;;;;;7.97;5.30;;;;;;;;;;5058517;28;20029;-75
2023/04/19 01:12:06;;;;;;;7.60;4.97;;;;;;;;;;5057986;28;20028;-76
2023/04/19 01:14:32;;;;;;;7.78;4.32;;;;;;;;;;5057645;28;20048;-76
2023/04/19 01:16:57;;;;;;;10.30;4.43;;;;;;;;;;5056798;28;20021;-76
2023/04/19 01:19:22;;;;;;;7.88;4.38;;;;;;;;;;5057231;28;20033;-75
2023/04/19 01:21:48;;;;;;;6.13;3.87;;;;;;;;;;5057076;28;20491;-76
2023/04/19 01:24:14;;;;;;;7.15;4.20;;;;;;;;;;5056980;28;20313;-76
2023/04/19 01:26:39;;;;;;;6.90;4.35;;;;;;;;;;5056867;28;20036;-76
2023/04/19 01:29:04;;;;;;;10.55;4.47;;;;;;;;;;5057647;28;20051;-76
2023/04/19 01:31:30;;;;;;;8.27;4.60;;;;;;;;;;5056771;28;20029;-77
2023/04/19 01:33:55;;;;;;;8.55;4.20;;;;;;;;;;5057360;28;20021;-80
2023/04/19 01:36:20;;;;;;;10.57;4.70;;;;;;;;;;5061887;28;20024;-82
2023/04/19 01:38:48;;;;;;;7.75;4.10;;;;;;;;;;5060259;28;20025;-81
2023/04/19 01:41:14;;;;;;;8.27;4.18;;;;;;;;;;5061020;28;20037;-82
2023/04/19 01:43:39;;;;;;;9.25;3.85;;;;;;;;;;5057447;28;20035;-82
2023/04/19 01:46:04;;;;;;;5.57;4.20;;;;;;;;;;5055792;28;20021;-77
2023/04/19 01:48:30;;;;;;;10.02;4.63;;;;;;;;;;5058570;28;20028;-77
2023/04/19 01:50:55;;;;;;;7.40;4.40;;;;;;;;;;5059463;28;20033;-77
2023/04/19 01:53:20;;;;;;;9.27;4.88;;;;;;;;;;5058720;28;20276;-83
2023/04/19 01:55:45;;;;;;;7.65;4.88;;;;;;;;;;5060925;28;20479;-82
2023/04/19 01:58:11;;;;;;;8.63;4.53;;;;;;;;;;5059317;28;20028;-77
2023/04/19 02:00:36;;;;;;;7.60;4.40;;;;;;;;;;5056601;28;20059;-77
2023/04/19 02:03:01;;;;;;;8.35;4.55;;;;;;;;;;5055141;28;20028;-77
2023/04/19 02:05:26;;;;;;;6.57;4.82;;;;;;;;;;5056131;28;20133;-77
2023/04/19 02:07:51;;;;;;;8.17;4.90;;;;;;;;;;5057050;28;20047;-77
2023/04/19 02:10:17;;;;;;;8.80;4.63;;;;;;;;;;5055562;28;20312;-77
2023/04/19 02:12:42;;;;;;;8.80;4.25;;;;;;;;;;5056879;28;20265;-77
2023/04/19 02:15:08;;;;;;;9.77;4.25;;;;;;;;;;5057370;28;20021;-77
2023/04/19 02:17:33;;;;;;;8.05;4.60;;;;;;;;;;5057391;28;20021;-77
2023/04/19 02:19:58;;;;;;;6.43;4.07;;;;;;;;;;5057427;28;20044;-77
2023/04/19 02:22:23;;;;;;;6.90;4.40;;;;;;;;;;5057204;28;20258;-77
2023/04/19 02:24:49;;;;;;;7.73;4.33;;;;;;;;;;5056752;28;20313;-78
2023/04/19 02:27:15;;;;;;;9.60;4.50;;;;;;;;;;5055822;28;20270;-79
2023/04/19 02:29:40;;;;;;;6.88;4.40;;;;;;;;;;5056296;28;20020;-78
2023/04/19 02:32:05;;;;;;;6.82;4.78;;;;;;;;;;5056364;28;20500;-80
2023/04/19 02:34:31;;;;;;;8.00;4.53;;;;;;;;;;5056331;28;20021;-80
2023/04/19 02:36:57;;;;;;;7.03;4.53;;;;;;;;;;5056728;28;20025;-80
2023/04/19 02:39:22;;;;;;;7.63;4.57;;;;;;;;;;5057206;28;20385;-80
2023/04/19 02:41:48;;;;;;;12.00;5.00;;;;;;;;;;5056945;28;20088;-79
2023/04/19 02:44:13;;;;;;;7.20;4.45;;;;;;;;;;5057264;28;20028;-79
2023/04/19 02:46:38;;;;;;;6.83;4.53;;;;;;;;;;5058492;28;20021;-82
2023/04/19 02:49:04;;;;;;;8.15;4.40;;;;;;;;;;5054793;28;20250;-78
2023/04/19 02:51:29;;;;;;;7.85;4.70;;;;;;;;;;5057016;28;20554;-79
2023/04/19 02:53:54;;;;;;;7.88;4.85;;;;;;;;;;5055982;28;20013;-79
2023/04/19 02:56:20;;;;;;;9.00;4.93;;;;;;;;;;5053469;28;20384;-79
2023/04/19 02:58:45;;;;;;;9.95;5.32;;;;;;;;;;5053810;28;20752;-77
2023/04/19 03:01:10;;;;;;;9.30;5.07;;;;;;;;;;5053272;28;20392;-77
2023/04/19 03:03:35;;;;;;;9.97;5.57;;;;;;;;;;5053385;28;20705;-78
2023/04/19 03:06:01;;;;;;;12.20;5.13;;;;;;;;;;5053324;28;20284;-77
2023/04/19 03:08:26;;;;;;;8.27;4.75;;;;;;;;;;5053707;28;20024;-77
2023/04/19 03:10:52;;;;;;;8.50;4.65;;;;;;;;;;5053413;28;20043;-78
2023/04/19 03:13:17;;;;;;;9.60;4.93;;;;;;;;;;5051820;28;20025;-80
2023/04/19 03:15:42;;;;;;;9.95;5.30;;;;;;;;;;5053654;28;20242;-77
2023/04/19 03:18:07;;;;;;;9.03;5.77;;;;;;;;;;5053367;28;20060;-77
2023/04/19 03:20:33;;;;;;;12.18;5.22;;;;;;;;;;5054149;28;20254;-77
2023/04/19 03:22:58;;;;;;;9.35;5.88;;;;;;;;;;5053385;28;20036;-79
2023/04/19 03:25:23;;;;;;;10.32;6.18;;;;;;;;;;5053539;28;20025;-77
2023/04/19 03:27:50;;;;;;;12.13;6.38;;;;;;;;;;5053208;28;20021;-78
2023/04/19 03:30:16;;;;;;;11.52;5.80;;;;;;;;;;5051817;28;20396;-77
2023/04/19 03:32:42;;;;;;;7.78;4.57;;;;;;;;;;5053680;28;20044;-78
2023/04/19 03:35:08;;;;;;;10.60;6.68;;;;;;;;;;5053580;28;20043;-78
2023/04/19 03:37:33;;;;;;;9.88;6.15;;;;;;;;;;5053274;28;20021;-78
2023/04/19 03:39:58;;;;;;;9.57;5.93;;;;;;;;;;5053451;28;20480;-78
2023/04/19 03:42:24;;;;;;;9.15;6.28;;;;;;;;;;5053793;28;20036;-78
2023/04/19 03:44:49;;;;;;;11.23;6.30;;;;;;;;;;5053627;28;20116;-77
2023/04/19 03:47:14;;;;;;;12.95;6.78;;;;;;;;;;5053367;28;20300;-78
2023/04/19 03:49:39;;;;;;;11.18;6.32;;;;;;;;;;5056654;28;20056;-77
2023/04/19 03:52:05;;;;;;;9.73;6.77;;;;;;;;;;5057129;28;20021;-77
2023/04/19 03:54:30;;;;;;;13.25;6.90;;;;;;;;;;5057659;28;20246;-78
2023/04/19 03:56:56;;;;;;;12.57;7.20;;;;;;;;;;5056497;28;20499;-77
2023/04/19 03:59:21;;;;;;;11.95;7.50;;;;;;;;;;5057062;28;20032;-78
2023/04/19 04:01:46;;;;;;;14.55;6.93;;;;;;;;;;5057239;28;20031;-78
2023/04/19 04:04:11;;;;;;;9.57;5.80;;;;;;;;;;5056952;28;20032;-78
2023/04/19 04:06:37;;;;;;;10.27;6.53;;;;;;;;;;5056921;28;20391;-77
2023/04/19 04:09:02;;;;;;;11.95;7.32;;;;;;;;;;5057032;28;20031;-77
2023/04/19 04:11:28;;;;;;;10.50;6.78;;;;;;;;;;5056804;28;20025;-78
2023/04/19 04:13:54;;;;;;;9.85;5.97;;;;;;;;;;5057212;28;20021;-78
2023/04/19 04:16:20;;;;;;;12.20;6.35;;;;;;;;;;5056843;28;20104;-78
2023/04/19 04:18:45;;;;;;;9.77;6.55;;;;;;;;;;5055757;28;20467;-78
2023/04/19 04:21:10;;;;;;;11.48;6.75;;;;;;;;;;5057067;28;20055;-78
2023/04/19 04:23:36;;;;;;;10.48;6.88;;;;;;;;;;5056152;28;20025;-77
2023/04/19 04:26:03;;;;;;;11.88;6.00;;;;;;;;;;5056750;28;20044;-78
2023/04/19 04:28:29;;;;;;;10.63;5.97;;;;;;;;;;5055492;28;20027;-77
2023/04/19 04:30:59;;;;;;;8.68;5.63;;;;;;;;;;5056692;28;20025;-77
2023/04/19 04:33:27;;;;;;;9.40;6.03;;;;;;;;;;5054833;28;20017;-77
2023/04/19 04:35:53;;;;;;;9.88;5.95;;;;;;;;;;5056245;28;20032;-78
2023/04/19 04:38:19;;;;;;;9.18;5.60;;;;;;;;;;5056369;28;20108;-78
2023/04/19 04:40:58;;;;;;;7.22;5.10;;;;;;;;;;5056423;28;20028;-78
2023/04/19 04:43:24;;;;;;;9.52;5.43;;;;;;;;;;5056959;28;20021;-78
2023/04/19 04:45:50;;;;;;;6.38;4.18;;;;;;;;;;5055511;28;20082;-78
2023/04/19 04:48:15;;;;;;;9.85;4.65;;;;;;;;;;5057683;28;20044;-78
2023/04/19 04:50:41;;;;;;;8.45;4.47;;;;;;;;;;5056592;28;20064;-78
2023/04/19 04:53:06;;;;;;;9.45;4.60;;;;;;;;;;5056352;28;20498;-77
2023/04/19 04:55:32;;;;;;;9.18;4.85;;;;;;;;;;5055764;28;20056;-79
2023/04/19 04:57:57;;;;;;;8.07;4.50;;;;;;;;;;5054692;28;20029;-78
2023/04/19 05:00:23;;;;;;;6.17;3.97;;;;;;;;;;5055274;28;20092;-79
2023/04/19 05:02:48;;;;;;;7.80;4.07;;;;;;;;;;5056122;28;20606;-78
2023/04/19 05:05:13;;;;;;;8.13;2.90;;;;;;;;;;5056216;28;20060;-78
2023/04/19 05:07:39;;;;;;;7.03;4.13;;;;;;;;;;5055655;28;20021;-78
2023/04/19 05:10:05;;;;;;;6.20;3.40;;;;;;;;;;5056640;28;20029;-78
2023/04/19 05:12:30;;;;;;;7.13;3.67;;;;;;;;;;5055363;28;20444;-79
2023/04/19 05:14:55;;;;;;;9.05;3.75;;;;;;;;;;5056612;28;20025;-78
2023/04/19 05:17:20;;;;;;;7.60;3.20;;;;;;;;;;5056981;28;20040;-78
2023/04/19 05:19:46;;;;;;;5.10;3.40;;;;;;;;;;5057182;28;20029;-78
2023/04/19 05:22:11;;;;;;;5.23;3.40;;;;;;;;;;5055388;28;20280;-78
2023/04/19 05:24:36;;;;;;;7.25;3.30;;;;;;;;;;5056290;28;20637;-78
2023/04/19 05:27:02;;;;;;;7.07;3.00;;;;;;;;;;5055005;28;20107;-78
2023/04/19 05:29:27;;;;;;;4.97;2.80;;;;;;;;;;5055935;28;20682;-78
2023/04/19 05:31:52;;;;;;;3.73;2.17;;;;;;;;;;5054406;28;20056;-77
2023/04/19 05:34:17;;;;;;;3.83;2.20;;;;;;;;;;5055388;28;20254;-77
2023/04/19 05:36:43;;;;;;;3.75;2.63;;;;;;;;;;5054199;28;20307;-77
2023/04/19 05:39:08;;;;;;;5.05;2.55;;;;;;;;;;5055319;28;20056;-77
2023/04/19 05:41:33;;;;;;;4.65;2.60;;;;;;;;;;5055999;28;20107;-77
2023/04/19 05:43:58;;;;;;;6.40;2.58;;;;;;;;;;5056082;28;20082;-78
2023/04/19 05:46:24;;;;;;;3.42;2.05;;;;;;;;;;5053924;28;20028;-78
2023/04/19 05:48:49;;;;;;;5.63;2.50;;;;;;;;;;5056301;28;20028;-78
2023/04/19 05:51:16;;;;;;;7.30;2.53;;;;;;;;;;5054517;28;20258;-78
2023/04/19 05:53:41;;;;;;;5.88;2.00;;;;;;;;;;5055398;28;20101;-78
2023/04/19 05:56:06;;;;;;;4.97;2.60;;;;;;;;;;5055516;28;20150;-77
2023/04/19 05:58:31;;;;;;;5.77;2.33;;;;;;;;;;5055908;28;20254;-78
2023/04/19 06:00:57;;;;;;;5.57;2.70;;;;;;;;;;5054883;28;20284;-78
2023/04/19 06:03:22;;;;;;;3.15;2.03;;;;;;;;;;5055216;28;20274;-78
2023/04/19 06:05:47;;;;;;;4.87;2.30;;;;;;;;;;5055957;28;20040;-78
2023/04/19 06:08:15;;;;;;;6.88;2.33;;;;;;;;;;5055972;28;20262;-78
2023/04/19 06:10:42;;;;;;;4.57;2.08;;;;;;;;;;5055759;28;20063;-78
2023/04/19 06:13:07;;;;;;;4.22;1.80;;;;;;;;;;5053605;28;20033;-78
2023/04/19 06:15:32;;;;;;;4.57;2.10;;;;;;;;;;5053765;28;20119;-78
2023/04/19 06:17:57;;;;;;;7.07;1.90;;;;;;;;;;5053621;28;20305;-78
2023/04/19 06:20:22;;;;;;;3.13;1.53;;;;;;;;;;5053796;28;20029;-78
2023/04/19 06:22:48;;;;;;;4.50;2.00;;;;;;;;;;5055147;28;20262;-78
2023/04/19 06:25:13;;;;;;;4.13;2.08;;;;;;;;;;5055003;28;20289;-77
2023/04/19 06:27:39;;;;;;;5.80;1.90;;;;;;;;;;5054247;28;20021;-78
2023/04/19 06:30:05;;;;;;;3.28;1.73;;;;;;;;;;5054715;28;20024;-79
2023/04/19 06:32:30;;;;;;;4.18;1.92;;;;;;;;;;5053123;28;20036;-78
2023/04/19 06:34:55;;;;;;;3.70;1.97;;;;;;;;;;5054421;28;20078;-78
2023/04/19 06:37:21;;;;;;;3.27;1.70;;;;;;;;;;5053783;28;20270;-78
2023/04/19 06:39:46;;;;;;;2.42;1.42;;;;;;;;;;5052717;28;20258;-77
2023/04/19 06:42:11;;;;;;;2.55;1.73;;;;;;;;;;5053705;28;20023;-77
2023/04/19 06:44:36;;;;;;;2.40;1.30;;;;;;;;;;5053239;28;20074;-77
2023/04/19 06:47:02;;;;;;;3.42;1.40;;;;;;;;;;5053541;28;20257;-78
2023/04/19 06:49:28;;;;;;;4.18;1.73;;;;;;;;;;5053718;28;20059;-77
2023/04/19 06:51:53;;;;;;;6.63;1.65;;;;;;;;;;5053367;28;20029;-78
2023/04/19 06:54:18;;;;;;;4.55;1.70;;;;;;;;;;5053472;28;20059;-77
2023/04/19 06:56:46;;;;;;;2.17;1.40;;;;;;;;;;5053640;28;20242;-78
2023/04/19 06:59:13;;;;;;;4.88;1.55;;;;;;;;;;5053372;28;20033;-77
2023/04/19 07:01:39;;;;;;;4.40;1.70;;;;;;;;;;5051462;28;20017;-77
2023/04/19 07:04:05;;;;;;;2.83;1.42;;;;;;;;;;5052712;28;20025;-77
2023/04/19 07:06:30;;;;;;;3.83;1.77;;;;;;;;;;5053068;28;20025;-77
2023/04/19 07:08:55;;;;;;;2.55;1.73;;;;;;;;;;5053236;28;20118;-78
2023/04/19 07:11:21;;;;;;;3.50;1.73;;;;;;;;;;5052031;28;20025;-77
2023/04/19 07:13:46;;;;;;;2.83;1.77;;;;;;;;;;5053586;28;20265;-76
2023/04/19 07:16:13;;;;;;;3.23;1.80;;;;;;;;;;5053242;28;20032;-78
2023/04/19 07:18:38;;;;;;;2.47;1.50;;;;;;;;;;5051645;28;20269;-77
2023/04/19 07:21:03;;;;;;;3.35;1.50;;;;;;;;;;5052983;28;20021;-77
2023/04/19 07:23:29;;;;;;;4.63;1.63;;;;;;;;;;5052501;28;20078;-77
2023/04/19 07:25:55;;;;;;;5.95;1.50;;;;;;;;;;5053172;28;20096;-77
2023/04/19 07:28:20;;;;;;;2.58;1.30;;;;;;;;;;5052993;28;20494;-77
2023/04/19 07:30:45;;;;;;;2.87;1.77;;;;;;;;;;5053226;28;20024;-78
2023/04/19 07:33:10;;;;;;;3.78;1.65;;;;;;;;;;5054110;28;20284;-77
2023/04/19 07:35:38;;;;;;;2.88;1.50;;;;;;;;;;5053873;28;20024;-77
2023/04/19 07:38:03;;;;;;;2.15;1.60;;;;;;;;;;5053227;28;20439;-78
2023/04/19 07:40:28;;;;;;;5.03;1.67;;;;;;;;;;5053680;28;20017;-77
2023/04/19 07:42:54;;;;;;;4.45;1.35;;;;;;;;;;5053463;28;20816;-77
2023/04/19 07:45:20;;;;;;;4.85;1.35;;;;;;;;;;5053054;28;20404;-80
2023/04/19 07:47:45;;;;;;;2.03;1.48;;;;;;;;;;5052946;28;20028;-79
2023/04/19 07:50:11;;;;;;;2.92;1.55;;;;;;;;;;5053587;28;20025;-79
2023/04/19 07:52:36;;;;;;;5.13;2.20;;;;;;;;;;5051991;28;20032;-77
2023/04/19 07:55:02;;;;;;;3.47;1.80;;;;;;;;;;5052775;28;20021;-78
2023/04/19 07:57:27;;;;;;;2.50;1.70;;;;;;;;;;5051942;28;20021;-79
2023/04/19 07:59:56;;;;;;;1.98;1.23;;;;;;;;;;5053033;28;20452;-79
2023/04/19 08:02:22;;;;;;;1.65;1.30;;;;;;;;;;5052431;28;20534;-77
2023/04/19 08:04:48;;;;;;;3.40;1.65;;;;;;;;;;5052731;28;20021;-77
2023/04/19 08:07:13;;;;;;;2.08;1.48;;;;;;;;;;5052582;28;20032;-78
2023/04/19 08:09:39;;;;;;;6.10;1.85;;;;;;;;;;5053270;28;20021;-74
2023/04/19 08:12:04;;;;;;;2.45;1.58;;;;;;;;;;5052501;28;20033;-74
2023/04/19 08:14:30;;;;;;;4.07;1.92;;;;;;;;;;5052576;28;20025;-75
2023/04/19 08:16:55;;;;;;;3.58;1.55;;;;;;;;;;5051293;28;20021;-74
2023/04/19 08:19:20;;;;;;;2.53;1.70;;;;;;;;;;5052619;28;20058;-74
2023/04/19 08:21:45;;;;;;;2.75;1.50;;;;;;;;;;5052672;28;20371;-75
2023/04/19 08:24:10;;;;;;;3.20;2.23;;;;;;;;;;5052317;28;20032;-74
2023/04/19 08:26:37;;;;;;;4.07;1.80;;;;;;;;;;5052105;28;20250;-75
2023/04/19 08:29:03;;;;;;;2.97;1.73;;;;;;;;;;5052301;28;20258;-75
2023/04/19 08:31:28;;;;;;;2.70;1.60;;;;;;;;;;5052725;28;20048;-75
2023/04/19 08:33:53;;;;;;;3.17;1.23;;;;;;;;;;5052282;28;20025;-74
2023/04/19 08:36:18;;;;;;;3.77;1.40;;;;;;;;;;5054453;28;20063;-76
2023/04/19 08:38:44;;;;;;;1.40;1.17;;;;;;;;;;5055767;28;20258;-76
2023/04/19 08:41:11;;;;;;;2.97;1.42;;;;;;;;;;5055634;28;20254;-75
2023/04/19 08:43:37;;;;;;;1.95;1.55;;;;;;;;;;5055676;28;20416;-75
2023/04/19 08:46:03;;;;;;;3.00;1.85;;;;;;;;;;5055709;28;20024;-74
2023/04/19 08:48:29;;;;;;;2.53;1.63;;;;;;;;;;5055710;28;20016;-74
2023/04/19 08:50:56;;;;;;;4.05;1.88;;;;;;;;;;5055714;28;20060;-74
2023/04/19 08:53:22;;;;;;;5.65;2.05;;;;;;;;;;5055601;28;20453;-74
2023/04/19 08:55:48;;;;;;;2.22;1.35;;;;;;;;;;5054697;28;20199;-74
2023/04/19 08:58:14;;;;;;;1.58;1.30;;;;;;;;;;5056192;28;20074;-74
2023/04/19 09:00:40;;;;;;;5.53;2.00;;;;;;;;;;5055890;28;20057;-75
2023/04/19 09:03:06;;;;;;;3.17;1.60;;;;;;;;;;5055889;28;20025;-74
2023/04/19 09:05:31;;;;;;;3.63;2.00;;;;;;;;;;5056167;28;20480;-74
2023/04/19 09:08:21;;;;;;;3.72;1.70;;;;;;;;;;5055758;28;20106;-74
2023/04/19 09:11:00;;;;;;;4.78;2.05;;;;;;;;;;5054352;28;20056;-74
2023/04/19 09:13:27;;;;;;;4.85;2.17;;;;;;;;;;5055183;28;20032;-74
2023/04/19 09:15:55;;;;;;;3.35;2.13;;;;;;;;;;5055489;28;20143;-74
2023/04/19 09:18:21;;;;;;;3.47;1.35;;;;;;;;;;5055261;28;20055;-74
2023/04/19 09:20:47;;;;;;;9.30;2.17;;;;;;;;;;5055251;28;20510;-74
2023/04/19 09:23:14;;;;;;;3.17;1.70;;;;;;;;;;5055186;28;20033;-75
2023/04/19 09:25:50;;;;;;;2.88;1.63;;;;;;;;;;5054963;28;20174;-75
2023/04/19 09:28:15;;;;;;;5.63;2.15;;;;;;;;;;5054034;28;20444;-75
2023/04/19 09:30:40;;;;;;;3.17;1.93;;;;;;;;;;5055613;28;20048;-74
2023/04/19 09:33:07;;;;;;;3.97;2.30;;;;;;;;;;5054979;28;20269;-74
2023/04/19 09:35:43;;;;;;;3.75;1.98;;;;;;;;;;5055229;28;20266;-74
2023/04/19 09:38:10;;;;;;;4.35;2.03;;;;;;;;;;5054343;28;20033;-74
2023/04/19 09:40:36;;;;;;;4.28;1.80;;;;;;;;;;5054758;28;20369;-74
2023/04/19 09:43:02;;;;;;;5.90;1.98;;;;;;;;;;5054648;28;20032;-74
2023/04/19 09:45:39;;;;;;;2.47;1.38;;;;;;;;;;5054935;28;20384;-74
2023/04/19 09:48:06;;;;;;;3.03;1.92;;;;;;;;;;5054346;28;20040;-74
2023/04/19 09:50:31;;;;;;;3.78;1.60;;;;;;;;;;5054963;28;20443;-74
2023/04/19 09:52:58;;;;;;;10.07;2.47;;;;;;;;;;5054503;28;20025;-74
2023/04/19 09:55:25;;;;;;;3.17;2.10;;;;;;;;;;5054429;28;20503;-75
2023/04/19 09:57:51;;;;;;;1.85;1.38;;;;;;;;;;5053231;28;20035;-75
2023/04/19 10:00:16;;;;;;;3.45;2.35;;;;;;;;;;5053124;28;20029;-74
2023/04/19 10:02:43;;;;;;;4.68;2.13;;;;;;;;;;5054338;28;20025;-75
2023/04/19 10:05:09;;;;;;;4.65;2.25;;;;;;;;;;5054179;28;20043;-75
2023/04/19 10:07:34;;;;;;;4.05;2.30;;;;;;;;;;5052875;28;20491;-75
2023/04/19 10:10:01;;;;;;;2.80;1.77;;;;;;;;;;5054236;28;20451;-74
2023/04/19 10:12:26;;;;;;;4.32;2.13;;;;;;;;;;5054043;28;20033;-75
2023/04/19 10:14:55;;;;;;;3.50;2.20;;;;;;;;;;5054077;28;20389;-75
2023/04/19 10:17:21;;;;;;;4.03;2.47;;;;;;;;;;5054142;28;20385;-74
2023/04/19 10:19:46;;;;;;;5.82;2.58;;;;;;;;;;5054450;28;20067;-74
2023/04/19 10:22:13;;;;;;;2.97;2.10;;;;;;;;;;5052581;28;20037;-74
2023/04/19 10:24:38;;;;;;;8.00;2.15;;;;;;;;;;5053936;28;20029;-74
2023/04/19 10:27:06;;;;;;;3.80;1.95;;;;;;;;;;5053946;28;20029;-73
2023/04/19 10:29:50;;;;;;;3.85;2.25;;;;;;;;;;5053991;28;20036;-75
2023/04/19 10:32:16;;;;;;;2.03;1.60;;;;;;;;;;5052464;28;20074;-74
2023/04/19 10:34:41;;;;;;;2.35;1.80;;;;;;;;;;5052427;28;20540;-74
2023/04/19 10:37:10;;;;;;;3.08;2.15;;;;;;;;;;5052554;28;20058;-75
2023/04/19 10:39:40;;;;;;;3.60;1.90;;;;;;;;;;5052248;28;20021;-75
2023/04/19 10:42:05;;;;;;;3.85;1.85;;;;;;;;;;5052713;28;20025;-74
2023/04/19 10:44:30;;;;;;;5.38;1.65;;;;;;;;;;5053377;28;20392;-74
2023/04/19 10:46:57;;;;;;;4.22;2.40;;;;;;;;;;5052548;28;20083;-74
2023/04/19 10:49:22;;;;;;;3.17;1.90;;;;;;;;;;5053624;28;20407;-74
2023/04/19 10:51:54;;;;;;;3.95;2.17;;;;;;;;;;5053449;28;20107;-74
2023/04/19 10:54:32;;;;;;;4.07;2.22;;;;;;;;;;5053250;28;20074;-74
2023/04/19 10:57:00;;;;;;;2.40;1.40;;;;;;;;;;5052658;28;20060;-74
2023/04/19 10:59:28;;;;;;;4.53;2.47;;;;;;;;;;5052671;28;20029;-75
2023/04/19 11:01:56;;;;;;;4.78;2.17;;;;;;;;;;5053332;28;20033;-74
2023/04/19 11:04:22;;;;;;;2.80;1.48;;;;;;;;;;5053074;28;20476;-75
2023/04/19 11:06:51;;;;;;;6.78;2.22;;;;;;;;;;5053399;28;20025;-74
2023/04/19 11:09:33;;;;;;;3.35;2.00;;;;;;;;;;5051883;28;20029;-74
2023/04/19 11:12:07;;;;;;;3.17;2.20;;;;;;;;;;5053370;28;20071;-74
2023/04/19 11:14:52;;;;;;;2.47;1.55;;;;;;;;;;5052987;28;20432;-75
2023/04/19 11:17:24;;;;;;;3.40;1.95;;;;;;;;;;5053501;28;20029;-75
2023/04/19 11:20:07;;;;;;;2.63;1.70;;;;;;;;;;5051749;28;20491;-75
2023/04/19 11:22:33;;;;;;;4.88;2.08;;;;;;;;;;5053214;28;20431;-75
2023/04/19 11:25:10;;;;;;;5.75;2.20;;;;;;;;;;5052715;28;20492;-75
2023/04/19 11:27:36;;;;;;;3.13;1.40;;;;;;;;;;5052808;28;20037;-74
2023/04/19 11:30:04;;;;;;;2.45;1.50;;;;;;;;;;5052897;28;20066;-75
2023/04/19 11:32:29;;;;;;;2.50;1.48;;;;;;;;;;5052707;28;20044;-75
2023/04/19 11:34:56;;;;;;;3.88;1.63;;;;;;;;;;5052981;28;20017;-75
2023/04/19 11:37:21;;;;;;;2.08;1.00;;;;;;;;;;5051854;28;20559;-75
2023/04/19 11:39:46;;;;;;;2.47;1.45;;;;;;;;;;5052955;28;20064;-75
2023/04/19 11:42:19;;;;;;;3.90;1.47;;;;;;;;;;5052736;28;20036;-74
2023/04/19 11:44:49;;;;;;;2.83;2.00;;;;;;;;;;5051283;28;20274;-74
2023/04/19 11:47:15;;;;;;;7.13;1.73;;;;;;;;;;5051438;28;20032;-74
2023/04/19 11:49:40;;;;;;;3.45;1.98;;;;;;;;;;5052798;28;20025;-75
2023/04/19 11:52:06;;;;;;;2.33;1.43;;;;;;;;;;5051408;28;20392;-74
2023/04/19 11:54:31;;;;;;;4.18;1.85;;;;;;;;;;5052607;28;20644;-74
2023/04/19 11:56:57;;;;;;;4.50;1.88;;;;;;;;;;5052676;28;20036;-74
2023/04/19 11:59:22;;;;;;;2.67;1.40;;;;;;;;;;5051190;28;20439;-74
2023/04/19 12:01:47;;;;;;;1.97;1.37;;;;;;;;;;5052927;28;20020;-73
2023/04/19 12:04:12;;;;;;;4.60;1.90;;;;;;;;;;5052252;28;20281;-74
2023/04/19 12:06:38;;;;;;;2.88;1.67;;;;;;;;;;5051381;28;20257;-75
2023/04/19 12:09:07;;;;;;;3.35;2.08;;;;;;;;;;5053032;28;20424;-73
2023/04/19 12:11:44;;;;;;;2.58;1.67;;;;;;;;;;5054978;28;20051;-75
2023/04/19 12:14:12;;;;;;;7.38;2.00;;;;;;;;;;5056491;28;20031;-74
2023/04/19 12:16:37;;;;;;;4.28;1.95;;;;;;;;;;5056233;28;20457;-75
2023/04/19 12:19:13;;;;;;;3.87;1.17;;;;;;;;;;5055026;28;20052;-74
2023/04/19 12:21:39;;;;;;;3.63;1.77;;;;;;;;;;5056355;28;20262;-74
2023/04/19 12:24:04;;;;;;;2.50;1.70;;;;;;;;;;5054863;28;20032;-73
2023/04/19 12:26:30;;;;;;;4.15;2.20;;;;;;;;;;5055132;28;20025;-74
2023/04/19 12:28:56;;;;;;;1.60;1.20;;;;;;;;;;5055703;28;20021;-74
2023/04/19 12:31:21;;;;;;;4.75;1.88;;;;;;;;;;5055753;28;20411;-74
2023/04/19 12:33:47;;;;;;;3.07;1.37;;;;;;;;;;5056590;28;20019;-74
2023/04/19 12:36:13;;;;;;;4.15;1.80;;;;;;;;;;5056164;28;20258;-74
2023/04/19 12:38:38;;;;;;;4.20;1.92;;;;;;;;;;5055996;28;20025;-74
2023/04/19 12:41:04;;;;;;;5.25;2.10;;;;;;;;;;5056149;28;20056;-73
2023/04/19 12:43:30;;;;;;;4.95;1.95;;;;;;;;;;5055896;28;20091;-74
2023/04/19 12:45:57;;;;;;;4.53;2.28;;;;;;;;;;5054406;28;20480;-74
2023/04/19 12:48:22;;;;;;;4.97;2.20;;;;;;;;;;5055906;28;20040;-74
2023/04/19 12:50:47;;;;;;;3.60;2.10;;;;;;;;;;5055627;28;20020;-74
2023/04/19 12:53:12;;;;;;;5.43;2.17;;;;;;;;;;5055915;28;20025;-74
2023/04/19 12:55:37;;;;;;;2.73;1.80;;;;;;;;;;5055661;28;20032;-74
2023/04/19 12:58:03;;;;;;;3.40;1.93;;;;;;;;;;5054601;28;20265;-74
2023/04/19 13:00:29;;;;;;;3.78;2.45;;;;;;;;;;5055432;28;20284;-73
2023/04/19 13:02:54;;;;;;;5.65;2.42;;;;;;;;;;5055772;28;20405;-74
2023/04/19 13:05:20;;;;;;;4.60;2.40;;;;;;;;;;5055261;28;20021;-74
2023/04/19 13:07:45;;;;;;;6.57;2.47;;;;;;;;;;5055344;28;20028;-74
2023/04/19 13:10:11;;;;;;;4.03;2.10;;;;;;;;;;5054884;28;20029;-74
2023/04/19 13:12:36;;;;;;;5.18;2.10;;;;;;;;;;5055353;28;20450;-74
2023/04/19 13:15:02;;;;;;;4.18;2.25;;;;;;;;;;5055056;28;20013;-74
2023/04/19 13:17:27;;;;;;;4.70;2.03;;;;;;;;;;5053911;28;20024;-74
2023/04/19 13:19:52;;;;;;;4.47;2.20;;;;;;;;;;5055501;28;20025;-75
2023/04/19 13:22:17;;;;;;;5.38;2.42;;;;;;;;;;5054387;28;20040;-75
2023/04/19 13:24:42;;;;;;;5.57;2.40;;;;;;;;;;5053618;28;20650;-75
2023/04/19 13:27:08;;;;;;;4.30;2.27;;;;;;;;;;5054944;28;20813;-74
2023/04/19 13:29:33;;;;;;;4.50;2.00;;;;;;;;;;5055393;28;20766;-75
2023/04/19 13:31:58;;;;;;;3.85;2.15;;;;;;;;;;5054804;28;20761;-75
2023/04/19 13:34:23;;;;;;;6.55;2.22;;;;;;;;;;5054989;28;20021;-75
2023/04/19 13:36:50;;;;;;;5.03;2.70;;;;;;;;;;5053527;28;20067;-74
2023/04/19 13:39:15;;;;;;;4.68;2.58;;;;;;;;;;5054821;28;20021;-74
2023/04/19 13:41:40;;;;;;;7.53;2.83;;;;;;;;;;5054980;28;20032;-75
2023/04/19 13:44:05;;;;;;;9.23;2.63;;;;;;;;;;5054846;28;20522;-75
2023/04/19 13:46:31;;;;;;;3.33;2.10;;;;;;;;;;5054703;28;20021;-75
2023/04/19 13:48:56;;;;;;;6.95;2.97;;;;;;;;;;5054699;28;20320;-75
2023/04/19 13:51:22;;;;;;;7.88;2.90;;;;;;;;;;5054772;28;20384;-74
2023/04/19 13:53:47;;;;;;;4.78;2.55;;;;;;;;;;5054702;28;20040;-75
2023/04/19 13:56:12;;;;;;;5.43;2.30;;;;;;;;;;5053116;28;20021;-76
2023/04/19 13:58:37;;;;;;;5.22;2.65;;;;;;;;;;5054552;28;20261;-75
2023/04/19 14:01:03;;;;;;;9.65;2.28;;;;;;;;;;5054197;28;20367;-74
2023/04/19 14:03:28;;;;;;;8.52;4.18;;;;;;;;;;5052819;28;20139;-74
2023/04/19 14:05:54;;;;;;;4.43;2.00;;;;;;;;;;5053155;28;20480;-75
2023/04/19 14:08:19;;;;;;;5.53;2.47;;;;;;;;;;5052897;28;20021;-75
2023/04/19 14:10:45;;;;;;;2.85;1.73;;;;;;;;;;5054186;28;20048;-75
2023/04/19 14:13:10;;;;;;;3.63;1.52;;;;;;;;;;5054292;28;20040;-75
2023/04/19 14:15:35;;;;;;;3.78;1.77;;;;;;;;;;5054242;28;20017;-75
2023/04/19 14:18:01;;;;;;;4.50;2.00;;;;;;;;;;5054033;28;20029;-75
2023/04/19 14:20:26;;;;;;;4.05;2.35;;;;;;;;;;5054158;28;20258;-74
2023/04/19 14:22:54;;;;;;;3.97;2.43;;;;;;;;;;5053850;28;20029;-74
2023/04/19 14:25:19;;;;;;;3.55;2.10;;;;;;;;;;5054130;28;20289;-75
2023/04/19 14:27:44;;;;;;;5.72;2.05;;;;;;;;;;5053807;28;20400;-74
2023/04/19 14:30:09;;;;;;;3.70;2.20;;;;;;;;;;5053737;28;20079;-74
2023/04/19 14:32:35;;;;;;;3.95;2.40;;;;;;;;;;5053336;28;20385;-75
2023/04/19 14:35:00;;;;;;;5.35;2.28;;;;;;;;;;5053206;28;20029;-75